createdAt,value
2019-02-25T00:00:30.830Z,65.66
2019-02-25T00:03:01.709Z,65.33
2019-02-25T00:05:33.198Z,65.09
2019-02-25T00:08:04.145Z,65.08
2019-02-25T00:10:35.021Z,64.74
2019-02-25T00:13:06.026Z,65.18
2019-02-25T00:15:37.036Z,65.07
2019-02-25T00:18:08.031Z,65.92
2019-02-25T00:20:38.913Z,65.42
2019-02-25T00:23:09.765Z,65.88
2019-02-25T00:25:40.716Z,66.23
2019-02-25T00:28:11.572Z,66.21
2019-02-25T00:30:42.466Z,67.54
2019-02-25T00:33:13.321Z,66.00
2019-02-25T00:35:44.192Z,66.37
2019-02-25T00:38:15.063Z,66.04
2019-02-25T00:40:45.990Z,65.94
2019-02-25T00:43:16.852Z,65.38
2019-02-25T00:45:47.880Z,65.34
2019-02-25T00:48:18.726Z,65.64
2019-02-25T00:50:49.729Z,66.14
2019-02-25T00:53:20.591Z,66.31
2019-02-25T00:55:51.453Z,66.70
2019-02-25T00:58:22.304Z,66.92
2019-02-25T01:00:53.249Z,67.88
2019-02-25T01:03:24.135Z,68.45
2019-02-25T01:05:55.062Z,68.22
2019-02-25T01:08:25.926Z,68.75
2019-02-25T01:10:56.855Z,68.54
2019-02-25T01:13:27.909Z,68.86
2019-02-25T01:15:58.754Z,69.28
2019-02-25T01:18:29.607Z,69.28
2019-02-25T01:21:00.463Z,69.14
2019-02-25T01:23:31.357Z,69.27
2019-02-25T01:26:02.221Z,69.37
2019-02-25T01:28:33.107Z,69.36
2019-02-25T01:31:04.014Z,69.57
2019-02-25T01:33:34.964Z,70.57
2019-02-25T01:36:05.846Z,70.29
2019-02-25T01:38:36.707Z,70.46
2019-02-25T01:41:07.569Z,71.66
2019-02-25T01:43:38.459Z,71.79
2019-02-25T01:46:09.323Z,73.24
2019-02-25T01:48:40.280Z,72.73
2019-02-25T01:51:11.194Z,71.75
2019-02-25T01:53:41.997Z,71.93
2019-02-25T01:56:12.831Z,72.32
2019-02-25T01:58:43.702Z,72.44
2019-02-25T02:01:14.557Z,72.64
2019-02-25T02:03:45.400Z,72.37
2019-02-25T02:06:16.297Z,72.07
2019-02-25T02:08:47.155Z,72.79
2019-02-25T02:11:18.011Z,72.22
2019-02-25T02:13:48.890Z,73.03
2019-02-25T02:16:19.745Z,73.95
2019-02-25T02:18:50.608Z,73.93
2019-02-25T02:21:21.471Z,74.12
2019-02-25T02:23:52.310Z,73.94
2019-02-25T02:26:23.168Z,74.12
2019-02-25T02:28:54.030Z,74.62
2019-02-25T02:31:24.887Z,74.73
2019-02-25T02:33:55.754Z,74.30
2019-02-25T02:36:26.642Z,74.16
2019-02-25T02:38:57.503Z,73.75
2019-02-25T02:41:28.360Z,73.56
2019-02-25T02:43:59.213Z,73.90
2019-02-25T02:46:41.744Z,74.09
2019-02-25T02:49:12.587Z,73.85
2019-02-25T02:51:43.469Z,74.44
2019-02-25T02:54:14.326Z,74.44
2019-02-25T02:56:45.176Z,74.49
2019-02-25T02:59:16.041Z,74.96
2019-02-25T03:01:47.120Z,76.39
2019-02-25T03:04:17.963Z,75.68
2019-02-25T03:06:48.842Z,75.61
2019-02-25T03:09:19.696Z,75.42
2019-02-25T03:11:50.644Z,76.24
2019-02-25T03:14:21.488Z,76.42
2019-02-25T03:16:52.328Z,76.62
2019-02-25T03:19:23.194Z,76.56
2019-02-25T03:21:54.048Z,76.14
2019-02-25T03:24:24.921Z,75.62
2019-02-25T03:26:55.770Z,75.93
2019-02-25T03:29:26.633Z,76.81
2019-02-25T03:31:57.498Z,76.14
2019-02-25T03:34:28.372Z,76.48
2019-02-25T03:36:59.234Z,76.14
2019-02-25T03:39:30.104Z,76.58
2019-02-25T03:42:01.030Z,76.77
2019-02-25T03:44:31.896Z,76.43
2019-02-25T03:47:02.796Z,76.07
2019-02-25T03:49:33.680Z,76.56
2019-02-25T03:52:04.608Z,76.19
2019-02-25T03:54:35.495Z,76.40
2019-02-25T03:57:06.364Z,76.78
2019-02-25T03:59:37.403Z,77.13
2019-02-25T04:02:08.423Z,76.61
2019-02-25T04:04:39.409Z,77.31
2019-02-25T04:07:10.371Z,77.24
2019-02-25T04:09:41.221Z,78.31
2019-02-25T04:12:12.079Z,78.54
2019-02-25T04:14:42.922Z,78.85
2019-02-25T04:17:13.775Z,79.01
2019-02-25T04:19:44.630Z,79.32
2019-02-25T04:22:15.573Z,80.21
2019-02-25T04:24:46.440Z,80.23
2019-02-25T04:27:17.287Z,80.42
2019-02-25T04:29:48.157Z,80.62
2019-02-25T04:32:19.022Z,80.52
2019-02-25T04:34:49.885Z,80.10
2019-02-25T04:37:20.733Z,80.13
2019-02-25T04:39:51.579Z,79.94
2019-02-25T04:42:22.591Z,79.71
2019-02-25T04:44:53.451Z,79.83
2019-02-25T04:47:24.316Z,79.30
2019-02-25T04:49:55.236Z,79.37
2019-02-25T04:52:26.127Z,79.76
2019-02-25T04:54:56.979Z,79.53
2019-02-25T04:57:28.176Z,79.47
2019-02-25T04:59:59.205Z,79.93
2019-02-25T05:02:30.067Z,79.91
2019-02-25T05:05:00.931Z,79.64
2019-02-25T05:07:31.801Z,79.20
2019-02-25T05:10:02.735Z,78.87
2019-02-25T05:12:33.606Z,80.29
2019-02-25T05:15:05.533Z,81.71
2019-02-25T05:17:36.378Z,81.83
2019-02-25T05:20:08.270Z,81.80
2019-02-25T05:22:39.250Z,82.15
2019-02-25T05:25:11.883Z,81.64
2019-02-25T05:27:42.743Z,81.12
2019-02-25T05:30:17.385Z,82.35
2019-02-25T05:32:48.246Z,81.99
2019-02-25T05:35:19.126Z,81.65
2019-02-25T05:37:49.998Z,81.99
2019-02-25T05:40:21.327Z,82.05
2019-02-25T05:42:52.235Z,82.36
2019-02-25T05:45:23.222Z,82.35
2019-02-25T05:47:55.299Z,81.94
2019-02-25T05:50:26.131Z,81.96
2019-02-25T05:52:57.019Z,82.52
2019-02-25T05:55:27.925Z,82.81
2019-02-25T05:57:58.763Z,82.66
2019-02-25T06:00:33.564Z,82.56
2019-02-25T06:03:04.438Z,81.95
2019-02-25T06:05:35.329Z,82.66
2019-02-25T06:08:06.349Z,82.71
2019-02-25T06:10:38.655Z,82.72
2019-02-25T06:13:09.519Z,82.62
2019-02-25T06:15:40.361Z,82.67
2019-02-25T06:18:11.252Z,83.55
2019-02-25T06:20:42.309Z,83.78
2019-02-25T06:23:13.206Z,83.29
2019-02-25T06:25:44.345Z,83.05
2019-02-25T06:28:15.237Z,83.21
2019-02-25T06:30:46.173Z,83.99
2019-02-25T06:33:17.111Z,83.50
2019-02-25T06:35:47.972Z,82.77
2019-02-25T06:38:18.827Z,82.66
2019-02-25T06:40:49.711Z,82.11
2019-02-25T06:43:20.583Z,82.00
2019-02-25T06:45:51.459Z,81.46
2019-02-25T06:48:22.310Z,80.76
2019-02-25T06:50:53.198Z,80.27
2019-02-25T06:53:24.059Z,79.48
2019-02-25T06:55:54.933Z,78.58
2019-02-25T06:58:25.886Z,77.72
2019-02-25T07:00:56.767Z,76.43
2019-02-25T07:03:27.608Z,75.26
2019-02-25T07:06:02.935Z,74.30
2019-02-25T07:08:35.434Z,73.46
2019-02-25T07:11:10.915Z,72.11
2019-02-25T07:13:43.413Z,70.25
2019-02-25T07:16:21.973Z,69.50
2019-02-25T07:19:10.438Z,69.01
2019-02-25T07:21:45.622Z,68.19
2019-02-25T07:24:23.837Z,67.90
2019-02-25T07:27:04.766Z,67.93
2019-02-25T07:29:52.251Z,67.60
2019-02-25T07:32:27.680Z,66.64
2019-02-25T07:35:00.598Z,66.33
2019-02-25T07:37:44.836Z,66.34
2019-02-25T07:40:33.104Z,65.23
2019-02-25T07:43:11.010Z,64.98
2019-02-25T07:45:49.516Z,63.09
2019-02-25T07:48:22.004Z,62.55
2019-02-25T07:51:03.464Z,62.95
2019-02-25T07:53:47.852Z,62.38
2019-02-25T07:56:23.010Z,60.62
2019-02-25T07:58:55.530Z,58.69
2019-02-25T08:01:28.041Z,57.79
2019-02-25T08:04:15.412Z,57.29
2019-02-25T08:06:47.920Z,55.78
2019-02-25T08:09:26.406Z,54.53
2019-02-25T08:12:10.814Z,54.31
2019-02-25T08:14:43.330Z,54.54
2019-02-25T08:17:32.004Z,54.18
2019-02-25T08:20:06.926Z,52.83
2019-02-25T08:22:48.376Z,51.94
2019-02-25T08:25:23.346Z,51.38
2019-02-25T08:28:01.498Z,50.48
2019-02-25T08:30:36.968Z,49.54
2019-02-25T08:33:21.036Z,48.95
2019-02-25T08:36:11.522Z,48.26
2019-02-25T08:38:49.443Z,48.14
2019-02-25T08:41:24.580Z,47.13
2019-02-25T08:44:00.014Z,47.14
2019-02-25T08:46:41.576Z,45.21
2019-02-25T08:49:14.210Z,44.90
2019-02-25T08:51:45.158Z,42.21
2019-02-25T08:54:16.152Z,39.74
2019-02-25T08:56:47.016Z,40.11
2019-02-25T08:59:17.942Z,40.55
2019-02-25T09:01:48.800Z,39.18
2019-02-25T09:04:19.644Z,38.15
2019-02-25T09:06:50.509Z,37.64
2019-02-25T09:09:21.728Z,36.43
2019-02-25T09:11:52.708Z,35.38
2019-02-25T09:14:23.653Z,34.48
2019-02-25T09:16:54.536Z,33.75
2019-02-25T09:19:25.444Z,33.92
2019-02-25T09:21:56.431Z,34.70
2019-02-25T09:24:27.305Z,33.94
2019-02-25T09:26:58.156Z,33.16
2019-02-25T09:29:29.037Z,32.74
2019-02-25T09:31:59.906Z,32.26
2019-02-25T09:34:30.809Z,30.63
2019-02-25T09:37:01.671Z,29.86
2019-02-25T09:39:32.525Z,30.02
2019-02-25T09:42:03.377Z,28.68
2019-02-25T09:44:34.235Z,28.41
2019-02-25T09:47:05.289Z,29.00
2019-02-25T09:49:36.087Z,27.19
2019-02-25T09:52:06.933Z,26.60
2019-02-25T09:54:37.821Z,25.72
2019-02-25T09:57:08.679Z,25.16
2019-02-25T09:59:39.569Z,25.22
2019-02-25T10:02:10.457Z,25.13
2019-02-25T10:04:41.335Z,25.86
2019-02-25T10:07:12.265Z,24.90
2019-02-25T10:09:43.215Z,25.77
2019-02-25T10:12:14.107Z,24.56
2019-02-25T10:14:44.985Z,25.04
2019-02-25T10:17:23.561Z,24.62
2019-02-25T10:19:48.420Z,24.18
2019-02-25T10:22:19.285Z,23.29
2019-02-25T10:24:50.161Z,23.35
2019-02-25T10:27:21.001Z,23.65
2019-02-25T10:29:51.863Z,22.98
2019-02-25T10:32:23.647Z,23.28
2019-02-25T10:34:55.288Z,21.77
2019-02-25T10:37:26.159Z,22.35
2019-02-25T10:39:57.022Z,22.19
2019-02-25T10:42:29.505Z,22.59
2019-02-25T10:45:02.550Z,21.66
2019-02-25T10:47:33.179Z,21.25
2019-02-25T10:50:05.751Z,21.26
2019-02-25T10:52:38.765Z,20.66
2019-02-25T10:55:24.919Z,20.61
2019-02-25T10:57:57.593Z,22.14
2019-02-25T11:00:28.752Z,21.48
2019-02-25T11:02:59.597Z,20.81
2019-02-25T11:05:30.749Z,20.75
2019-02-25T11:08:05.196Z,21.30
2019-02-25T11:10:40.211Z,21.30
2019-02-25T11:13:11.133Z,20.65
2019-02-25T11:15:44.008Z,20.38
2019-02-25T11:18:14.536Z,20.27
2019-02-25T11:20:45.403Z,19.95
2019-02-25T11:23:17.600Z,20.02
2019-02-25T11:25:48.851Z,18.75
2019-02-25T11:28:25.453Z,19.84
2019-02-25T11:30:53.811Z,18.84
2019-02-25T11:33:27.106Z,18.43
2019-02-25T11:35:57.414Z,17.87
2019-02-25T11:38:30.343Z,18.20
2019-02-25T11:41:02.025Z,17.83
2019-02-25T11:43:33.395Z,18.30
2019-02-25T11:46:04.333Z,19.69
2019-02-25T11:48:35.224Z,19.51
2019-02-25T11:51:06.147Z,18.94
2019-02-25T11:53:37.011Z,19.74
2019-02-25T11:56:07.971Z,20.36
2019-02-25T11:58:38.825Z,20.01
2019-02-25T12:01:09.827Z,19.52
2019-02-25T12:03:40.672Z,19.77
2019-02-25T12:06:11.549Z,19.89
2019-02-25T12:08:42.410Z,19.30
2019-02-25T12:11:13.312Z,18.53
2019-02-25T12:13:44.168Z,18.00
2019-02-25T12:16:15.127Z,18.36
2019-02-25T12:18:45.997Z,18.77
2019-02-25T12:21:16.863Z,19.17
2019-02-25T12:23:47.726Z,18.59
2019-02-25T12:26:18.669Z,18.69
2019-02-25T12:28:49.584Z,18.46
2019-02-25T12:31:20.442Z,17.88
2019-02-25T12:33:51.444Z,17.95
2019-02-25T12:36:22.292Z,19.03
2019-02-25T12:38:53.208Z,19.24
2019-02-25T12:41:24.114Z,18.98
2019-02-25T12:43:55.080Z,18.82
2019-02-25T12:46:25.894Z,20.11
2019-02-25T12:48:56.868Z,19.67
2019-02-25T12:51:27.720Z,18.54
2019-02-25T12:53:58.691Z,17.76
2019-02-25T12:56:29.618Z,17.76
2019-02-25T12:59:00.606Z,19.65
2019-02-25T13:01:31.473Z,20.36
2019-02-25T13:04:02.408Z,19.47
2019-02-25T13:06:33.364Z,18.98
2019-02-25T13:09:06.857Z,19.60
2019-02-25T13:11:39.874Z,19.63
2019-02-25T13:14:10.701Z,19.52
2019-02-25T13:16:41.634Z,19.52
2019-02-25T13:19:12.546Z,21.12
2019-02-25T13:21:43.484Z,20.18
2019-02-25T13:24:14.405Z,20.18
2019-02-25T13:26:45.351Z,21.67
2019-02-25T13:29:16.271Z,20.51
2019-02-25T13:31:47.220Z,20.14
2019-02-25T13:34:18.232Z,20.25
2019-02-25T13:36:49.160Z,20.53
2019-02-25T13:39:20.150Z,20.61
2019-02-25T13:41:51.119Z,21.44
2019-02-25T13:44:22.064Z,21.70
2019-02-25T13:46:53.082Z,22.77
2019-02-25T13:49:23.985Z,22.77
2019-02-25T13:51:54.838Z,23.00
2019-02-25T13:54:25.763Z,23.77
2019-02-25T13:56:56.776Z,24.53
2019-02-25T13:59:27.984Z,23.88
2019-02-25T14:01:58.852Z,23.95
2019-02-25T14:04:29.778Z,23.18
2019-02-25T14:07:00.624Z,22.84
2019-02-25T14:09:31.546Z,22.19
2019-02-25T14:12:02.551Z,22.31
2019-02-25T14:14:33.436Z,22.42
2019-02-25T14:17:04.273Z,22.68
2019-02-25T14:19:35.330Z,22.53
2019-02-25T14:22:06.436Z,23.35
2019-02-25T14:24:38.546Z,22.90
2019-02-25T14:27:11.762Z,23.12
2019-02-25T14:29:44.682Z,23.12
2019-02-25T14:32:15.616Z,23.23
2019-02-25T14:34:46.544Z,24.03
2019-02-25T14:37:19.491Z,24.71
2019-02-25T14:39:53.732Z,25.16
2019-02-25T14:42:25.672Z,25.97
2019-02-25T14:44:56.299Z,26.08
2019-02-25T14:47:34.789Z,26.09
2019-02-25T14:50:00.998Z,26.44
2019-02-25T14:52:31.934Z,27.79
2019-02-25T14:55:04.911Z,28.77
2019-02-25T14:57:35.750Z,30.44
2019-02-25T15:00:15.308Z,32.03
2019-02-25T15:02:48.028Z,33.28
2019-02-25T15:05:19.848Z,34.08
2019-02-25T15:07:53.243Z,33.63
2019-02-25T15:10:29.034Z,32.97
2019-02-25T15:12:59.214Z,32.19
2019-02-25T15:15:29.597Z,31.46
2019-02-25T15:18:00.860Z,30.43
2019-02-25T15:20:31.789Z,31.15
2019-02-25T15:23:02.798Z,30.90
2019-02-25T15:25:35.857Z,31.09
2019-02-25T15:28:09.257Z,31.20
2019-02-25T15:30:38.812Z,30.70
2019-02-25T15:33:09.997Z,30.12
2019-02-25T15:35:41.678Z,30.10
2019-02-25T15:38:13.703Z,30.35
2019-02-25T15:40:44.655Z,30.31
2019-02-25T15:43:18.105Z,30.43
2019-02-25T15:45:48.477Z,31.11
2019-02-25T15:48:21.567Z,31.71
2019-02-25T15:50:55.498Z,32.61
2019-02-25T15:53:27.341Z,32.92
2019-02-25T15:56:01.034Z,34.13
2019-02-25T15:58:30.855Z,34.23
2019-02-25T16:01:01.789Z,34.90
2019-02-25T16:03:35.140Z,34.58
2019-02-25T16:06:08.348Z,34.91
2019-02-25T16:08:39.539Z,35.99
2019-02-25T16:11:12.030Z,36.78
2019-02-25T16:13:43.224Z,38.24
2019-02-25T16:16:14.735Z,38.92
2019-02-25T16:18:45.651Z,40.24
2019-02-25T16:21:16.561Z,40.95
2019-02-25T16:23:47.457Z,42.30
2019-02-25T16:26:20.051Z,43.14
2019-02-25T16:28:53.204Z,43.79
2019-02-25T16:31:24.099Z,44.88
2019-02-25T16:33:55.499Z,45.75
2019-02-25T16:36:28.298Z,46.63
2019-02-25T16:39:01.761Z,47.36
2019-02-25T16:41:36.225Z,48.16
2019-02-25T16:44:06.819Z,47.80
2019-02-25T16:46:39.404Z,48.72
2019-02-25T16:49:10.557Z,49.17
2019-02-25T16:51:41.451Z,50.28
2019-02-25T16:54:13.576Z,50.61
2019-02-25T16:56:45.097Z,51.30
2019-02-25T16:59:17.850Z,51.63
2019-02-25T17:01:48.512Z,53.15
2019-02-25T17:04:22.644Z,53.22
2019-02-25T17:06:53.543Z,54.88
2019-02-25T17:09:25.306Z,54.43
2019-02-25T17:11:57.953Z,55.84
2019-02-25T17:14:28.682Z,54.61
2019-02-25T17:16:59.561Z,55.12
2019-02-25T17:19:30.550Z,55.10
2019-02-25T17:22:02.457Z,55.18
2019-02-25T17:24:34.893Z,57.38
2019-02-25T17:27:08.962Z,57.77
2019-02-25T17:29:39.735Z,58.42
2019-02-25T17:32:11.184Z,57.33
2019-02-25T17:34:43.737Z,57.52
2019-02-25T17:37:15.413Z,57.77
2019-02-25T17:39:47.393Z,58.16
2019-02-25T17:42:19.742Z,58.81
2019-02-25T17:44:53.310Z,58.71
2019-02-25T17:47:24.413Z,58.80
2019-02-25T17:49:56.055Z,59.24
2019-02-25T17:52:28.173Z,58.70
2019-02-25T17:54:59.042Z,59.64
2019-02-25T17:57:32.245Z,60.88
2019-02-25T18:00:03.232Z,61.28
2019-02-25T18:02:35.618Z,61.31
2019-02-25T18:05:09.410Z,61.64
2019-02-25T18:07:42.024Z,61.12
2019-02-25T18:10:14.068Z,61.57
2019-02-25T18:12:45.003Z,62.13
2019-02-25T18:15:30.555Z,62.50
2019-02-25T18:18:02.504Z,63.01
2019-02-25T18:20:33.478Z,66.27
2019-02-25T18:23:05.445Z,67.16
2019-02-25T18:25:37.766Z,65.94
2019-02-25T18:28:10.836Z,66.93
2019-02-25T18:30:41.826Z,67.06
2019-02-25T18:33:12.986Z,67.78
2019-02-25T18:35:45.630Z,67.91
2019-02-25T18:38:16.533Z,69.12
2019-02-25T18:40:47.442Z,68.67
2019-02-25T18:43:20.063Z,68.53
2019-02-25T18:45:51.077Z,68.83
2019-02-25T18:48:23.275Z,69.00
2019-02-25T18:50:57.175Z,69.98
2019-02-25T18:53:27.463Z,69.53
2019-02-25T18:55:58.468Z,70.38
2019-02-25T18:58:31.095Z,70.79
2019-02-25T19:01:02.250Z,70.74
2019-02-25T19:03:35.254Z,71.50
2019-02-25T19:06:05.852Z,71.93
2019-02-25T19:08:36.879Z,72.25
2019-02-25T19:11:07.827Z,73.12
2019-02-25T19:13:38.764Z,72.45
2019-02-25T19:16:10.043Z,71.84
2019-02-25T19:18:42.942Z,72.08
2019-02-25T19:21:13.875Z,73.07
2019-02-25T19:23:46.436Z,73.44
2019-02-25T19:26:19.550Z,74.03
2019-02-25T19:28:52.091Z,74.10
2019-02-25T19:31:23.917Z,74.80
2019-02-25T19:33:55.330Z,74.89
2019-02-25T19:36:29.423Z,75.86
2019-02-25T19:38:58.797Z,76.15
2019-02-25T19:41:29.982Z,75.90
2019-02-25T19:44:01.971Z,76.90
2019-02-25T19:46:33.416Z,77.89
2019-02-25T19:49:04.414Z,78.62
2019-02-25T19:51:35.365Z,79.52
2019-02-25T19:54:06.988Z,79.27
2019-02-25T19:56:38.897Z,80.00
2019-02-25T19:59:09.999Z,80.55
2019-02-25T20:01:40.849Z,80.23
2019-02-25T20:04:13.977Z,79.86
2019-02-25T20:06:44.830Z,80.33
2019-02-25T20:09:18.128Z,80.30
2019-02-25T20:11:48.980Z,80.22
2019-02-25T20:14:19.903Z,80.31
2019-02-25T20:16:50.769Z,83.16
2019-02-25T20:19:21.601Z,82.85
2019-02-25T20:21:53.076Z,82.63
2019-02-25T20:24:25.634Z,83.02
2019-02-25T20:26:59.709Z,83.92
2019-02-25T20:29:29.467Z,83.82
2019-02-25T20:32:00.446Z,83.79
2019-02-25T20:34:32.089Z,84.04
2019-02-25T20:37:03.973Z,83.59
2019-02-25T20:39:35.999Z,83.27
2019-02-25T20:42:07.434Z,83.90
2019-02-25T20:44:38.385Z,84.30
2019-02-25T20:47:09.231Z,84.46
2019-02-25T20:49:40.079Z,85.87
2019-02-25T20:52:11.774Z,88.04
2019-02-25T20:54:45.414Z,89.27
2019-02-25T20:57:16.929Z,89.79
2019-02-25T20:59:49.287Z,89.09
2019-02-25T21:02:21.643Z,89.33
2019-02-25T21:04:53.688Z,88.75
2019-02-25T21:07:25.127Z,89.22
2019-02-25T21:09:58.636Z,89.94
2019-02-25T21:12:29.355Z,89.40
2019-02-25T21:15:00.384Z,89.85
2019-02-25T21:17:33.034Z,92.16
2019-02-25T21:20:07.089Z,91.55
2019-02-25T21:22:38.570Z,90.67
2019-02-25T21:25:11.560Z,90.91
2019-02-25T21:27:42.424Z,91.86
2019-02-25T21:30:15.968Z,91.64
2019-02-25T21:32:49.278Z,90.89
2019-02-25T21:35:23.503Z,90.77
2019-02-25T21:37:54.657Z,91.13
2019-02-25T21:40:27.820Z,92.01
2019-02-25T21:42:58.389Z,92.59
2019-02-25T21:45:32.084Z,92.58
2019-02-25T21:48:04.687Z,92.59
2019-02-25T21:50:36.028Z,92.32
2019-02-25T21:53:07.587Z,91.52
2019-02-25T21:55:39.414Z,90.97
2019-02-25T21:58:10.278Z,90.92
2019-02-25T22:00:41.112Z,90.47
2019-02-25T22:03:13.195Z,91.44
2019-02-25T22:05:44.613Z,91.76
2019-02-25T22:08:15.458Z,91.85
2019-02-25T22:10:46.332Z,91.61
2019-02-25T22:13:18.410Z,92.14
2019-02-25T22:15:49.776Z,93.22
2019-02-25T22:18:20.626Z,93.28
2019-02-25T22:20:51.595Z,92.94
2019-02-25T22:23:25.828Z,92.64
2019-02-25T22:25:54.951Z,92.98
2019-02-25T22:28:25.805Z,92.92
2019-02-25T22:30:56.669Z,92.99
2019-02-25T22:33:28.097Z,94.59
2019-02-25T22:36:00.058Z,94.45
2019-02-25T22:38:30.912Z,94.36
2019-02-25T22:41:02.286Z,93.97
2019-02-25T22:43:33.174Z,93.80
2019-02-25T22:46:05.427Z,94.27
2019-02-25T22:48:37.660Z,96.07
2019-02-25T22:51:09.180Z,96.47
2019-02-25T22:53:40.048Z,96.07
2019-02-25T22:56:13.345Z,95.86
2019-02-25T22:58:43.438Z,96.82
2019-02-25T23:01:17.468Z,97.85
2019-02-25T23:03:47.994Z,97.93
2019-02-25T23:06:21.362Z,97.81
2019-02-25T23:08:53.389Z,97.64
2019-02-25T23:11:26.462Z,97.53
2019-02-25T23:13:57.389Z,97.94
2019-02-25T23:16:28.307Z,98.09
2019-02-25T23:18:59.212Z,97.29
2019-02-25T23:21:31.447Z,97.53
2019-02-25T23:24:03.052Z,97.55
2019-02-25T23:26:35.168Z,98.08
2019-02-25T23:29:06.033Z,98.09
2019-02-25T23:31:36.887Z,98.71
2019-02-25T23:34:10.128Z,98.51
2019-02-25T23:36:43.025Z,98.93
2019-02-25T23:39:12.935Z,99.06
2019-02-25T23:41:44.384Z,98.68
2019-02-25T23:44:17.452Z,98.84
2019-02-25T23:46:48.897Z,98.22
2019-02-25T23:49:27.047Z,98.95
2019-02-25T23:51:52.303Z,99.56
2019-02-25T23:54:25.334Z,99.72
2019-02-25T23:56:57.902Z,99.78
2019-02-25T23:59:28.243Z,99.22
